createdAt,value
2018-11-01T00:01:05.373Z,46.90
2018-11-01T00:03:32.726Z,47.01
2018-11-01T00:05:59.560Z,47.32
2018-11-01T00:08:26.433Z,47.06
2018-11-01T00:10:53.285Z,46.64
2018-11-01T00:13:21.140Z,47.01
2018-11-01T00:15:47.930Z,46.70
2018-11-01T00:18:16.316Z,46.71
2018-11-01T00:20:44.741Z,46.87
2018-11-01T00:23:12.495Z,46.99
2018-11-01T00:25:41.413Z,46.75
2018-11-01T00:28:09.160Z,46.88
2018-11-01T00:30:35.991Z,46.99
2018-11-01T00:33:02.833Z,47.74
2018-11-01T00:35:30.455Z,46.96
2018-11-01T00:37:57.297Z,47.01
2018-11-01T00:40:24.130Z,47.21
2018-11-01T00:42:50.996Z,47.01
2018-11-01T00:45:17.862Z,47.29
2018-11-01T00:47:45.072Z,46.70
2018-11-01T00:50:14.095Z,46.84
2018-11-01T00:52:41.543Z,46.70
2018-11-01T00:55:09.643Z,47.29
2018-11-01T00:57:36.474Z,46.94
2018-11-01T01:00:03.448Z,46.94
2018-11-01T01:02:31.208Z,46.96
2018-11-01T01:04:58.071Z,47.06
2018-11-01T01:07:24.943Z,46.91
2018-11-01T01:09:51.829Z,46.63
2018-11-01T01:12:19.639Z,46.83
2018-11-01T01:14:47.433Z,46.54
2018-11-01T01:17:15.306Z,46.77
2018-11-01T01:19:43.925Z,46.24
2018-11-01T01:22:10.794Z,46.72
2018-11-01T01:24:37.631Z,46.71
2018-11-01T01:27:05.336Z,46.74
2018-11-01T01:29:33.055Z,46.64
2018-11-01T01:31:59.880Z,46.12
2018-11-01T01:34:26.736Z,46.30
2018-11-01T01:36:53.575Z,46.85
2018-11-01T01:39:20.433Z,45.96
2018-11-01T01:41:47.273Z,46.04
2018-11-01T01:44:14.837Z,46.84
2018-11-01T01:46:41.662Z,46.09
2018-11-01T01:49:09.576Z,46.70
2018-11-01T01:51:36.400Z,45.83
2018-11-01T01:54:04.030Z,46.28
2018-11-01T01:56:30.864Z,46.12
2018-11-01T01:58:57.697Z,45.96
2018-11-01T02:01:24.504Z,45.97
2018-11-01T02:03:51.334Z,46.20
2018-11-01T02:06:18.169Z,46.53
2018-11-01T02:08:45.021Z,46.14
2018-11-01T02:11:11.873Z,46.04
2018-11-01T02:13:38.674Z,46.05
2018-11-01T02:16:06.424Z,46.27
2018-11-01T02:18:34.069Z,45.96
2018-11-01T02:21:01.917Z,46.55
2018-11-01T02:23:29.661Z,46.50
2018-11-01T02:25:56.586Z,45.96
2018-11-01T02:28:23.420Z,46.25
2018-11-01T02:30:51.173Z,46.41
2018-11-01T02:33:18.016Z,46.55
2018-11-01T02:35:45.819Z,46.17
2018-11-01T02:38:12.786Z,46.47
2018-11-01T02:40:39.521Z,46.17
2018-11-01T02:43:06.375Z,46.63
2018-11-01T02:45:34.344Z,46.99
2018-11-01T02:48:01.181Z,46.37
2018-11-01T02:50:28.019Z,46.78
2018-11-01T02:52:55.688Z,46.53
2018-11-01T02:55:23.430Z,46.53
2018-11-01T02:57:50.250Z,47.05
2018-11-01T03:00:18.077Z,46.83
2018-11-01T03:02:44.929Z,46.81
2018-11-01T03:05:14.397Z,46.62
2018-11-01T03:07:41.310Z,47.42
2018-11-01T03:10:08.935Z,46.83
2018-11-01T03:12:36.830Z,46.98
2018-11-01T03:15:04.012Z,47.05
2018-11-01T03:17:31.821Z,46.78
2018-11-01T03:19:58.650Z,46.81
2018-11-01T03:22:26.284Z,47.03
2018-11-01T03:24:53.181Z,47.44
2018-11-01T03:27:20.971Z,47.40
2018-11-01T03:29:49.552Z,47.30
2018-11-01T03:32:17.332Z,47.16
2018-11-01T03:34:44.939Z,47.12
2018-11-01T03:37:11.700Z,46.78
2018-11-01T03:39:39.468Z,46.46
2018-11-01T03:42:07.197Z,46.82
2018-11-01T03:44:34.797Z,46.91
2018-11-01T03:47:01.620Z,46.63
2018-11-01T03:49:28.466Z,46.82
2018-11-01T03:51:56.237Z,46.75
2018-11-01T03:54:24.152Z,47.28
2018-11-01T03:56:51.978Z,47.19
2018-11-01T03:59:18.800Z,47.11
2018-11-01T04:01:45.642Z,46.62
2018-11-01T04:04:12.467Z,47.14
2018-11-01T04:06:40.233Z,47.52
2018-11-01T04:09:14.073Z,47.18
2018-11-01T04:11:41.204Z,46.85
2018-11-01T04:14:08.595Z,47.26
2018-11-01T04:16:35.900Z,47.06
2018-11-01T04:19:02.732Z,46.96
2018-11-01T04:21:29.839Z,47.14
2018-11-01T04:23:56.664Z,47.22
2018-11-01T04:26:23.501Z,47.58
2018-11-01T04:28:51.162Z,47.50
2018-11-01T04:31:18.993Z,47.20
2018-11-01T04:33:46.656Z,46.95
2018-11-01T04:36:14.172Z,47.11
2018-11-01T04:38:41.081Z,47.11
2018-11-01T04:41:07.912Z,46.88
2018-11-01T04:43:34.750Z,46.66
2018-11-01T04:46:01.591Z,46.94
2018-11-01T04:48:28.412Z,47.00
2018-11-01T04:50:55.245Z,47.24
2018-11-01T04:53:22.071Z,47.14
2018-11-01T04:55:48.991Z,46.94
2018-11-01T04:58:15.917Z,46.75
2018-11-01T05:00:42.743Z,46.51
2018-11-01T05:03:09.689Z,46.28
2018-11-01T05:05:36.809Z,46.13
2018-11-01T05:08:03.567Z,46.93
2018-11-01T05:10:30.366Z,46.52
2018-11-01T05:12:57.233Z,46.18
2018-11-01T05:15:24.192Z,46.17
2018-11-01T05:17:50.981Z,46.18
2018-11-01T05:20:18.735Z,46.54
2018-11-01T05:22:46.692Z,46.34
2018-11-01T05:25:14.331Z,46.45
2018-11-01T05:27:41.214Z,47.08
2018-11-01T05:30:08.943Z,46.30
2018-11-01T05:32:35.914Z,46.53
2018-11-01T05:35:02.754Z,46.42
2018-11-01T05:37:30.510Z,46.38
2018-11-01T05:39:57.506Z,46.99
2018-11-01T05:42:26.059Z,47.09
2018-11-01T05:44:52.877Z,45.88
2018-11-01T05:47:19.757Z,45.80
2018-11-01T05:49:47.451Z,46.58
2018-11-01T05:52:14.961Z,45.92
2018-11-01T05:54:41.890Z,46.75
2018-11-01T05:57:09.616Z,46.29
2018-11-01T05:59:36.454Z,46.32
2018-11-01T06:02:07.880Z,46.48
2018-11-01T06:04:35.683Z,46.37
2018-11-01T06:07:02.627Z,46.78
2018-11-01T06:09:29.465Z,46.39
2018-11-01T06:11:57.230Z,46.75
2018-11-01T06:14:24.103Z,46.55
2018-11-01T06:16:51.013Z,46.88
2018-11-01T06:19:17.882Z,46.94
2018-11-01T06:21:45.996Z,46.91
2018-11-01T06:24:14.037Z,46.81
2018-11-01T06:26:41.860Z,46.80
2018-11-01T06:29:10.077Z,47.19
2018-11-01T06:31:37.775Z,46.65
2018-11-01T06:34:04.873Z,46.87
2018-11-01T06:36:31.810Z,46.98
2018-11-01T06:38:58.787Z,46.96
2018-11-01T06:41:25.680Z,47.76
2018-11-01T06:43:53.419Z,47.16
2018-11-01T06:46:20.429Z,47.10
2018-11-01T06:48:47.319Z,47.75
2018-11-01T06:51:15.204Z,47.94
2018-11-01T06:53:42.084Z,47.86
2018-11-01T06:56:09.723Z,47.91
2018-11-01T06:58:36.720Z,47.85
2018-11-01T07:01:03.567Z,47.41
2018-11-01T07:03:31.337Z,47.86
2018-11-01T07:05:59.097Z,47.39
2018-11-01T07:08:25.966Z,47.25
2018-11-01T07:10:52.793Z,48.07
2018-11-01T07:13:20.621Z,47.99
2018-11-01T07:15:47.424Z,47.68
2018-11-01T07:18:15.237Z,47.94
2018-11-01T07:20:42.255Z,47.97
2018-11-01T07:23:09.124Z,47.35
2018-11-01T07:25:36.064Z,47.89
2018-11-01T07:28:02.935Z,47.80
2018-11-01T07:30:30.743Z,48.40
2018-11-01T07:32:57.623Z,47.38
2018-11-01T07:35:24.622Z,48.09
2018-11-01T07:37:52.362Z,47.71
2018-11-01T07:40:19.554Z,48.28
2018-11-01T07:42:46.399Z,47.75
2018-11-01T07:45:14.836Z,47.82
2018-11-01T07:47:43.573Z,47.62
2018-11-01T07:50:12.458Z,48.04
2018-11-01T07:52:39.875Z,48.40
2018-11-01T07:55:07.461Z,48.09
2018-11-01T07:57:34.327Z,48.12
2018-11-01T08:00:01.164Z,48.62
2018-11-01T08:02:28.060Z,48.39
2018-11-01T08:04:55.791Z,48.26
2018-11-01T08:07:22.730Z,48.20
2018-11-01T08:09:49.506Z,48.32
2018-11-01T08:12:16.395Z,47.73
2018-11-01T08:14:43.987Z,48.54
2018-11-01T08:17:11.615Z,48.45
2018-11-01T08:19:38.517Z,48.99
2018-11-01T08:22:05.564Z,48.56
2018-11-01T08:24:32.436Z,48.17
2018-11-01T08:26:59.281Z,48.21
2018-11-01T08:29:27.024Z,48.26
2018-11-01T08:31:54.637Z,48.48
2018-11-01T08:34:22.455Z,48.22
2018-11-01T08:36:50.102Z,48.84
2018-11-01T08:39:17.004Z,48.75
2018-11-01T08:41:44.859Z,48.63
2018-11-01T08:44:12.628Z,48.55
2018-11-01T08:46:39.479Z,48.40
2018-11-01T08:49:06.920Z,48.47
2018-11-01T08:51:33.719Z,48.51
2018-11-01T08:54:00.572Z,48.26
2018-11-01T08:56:27.389Z,49.39
2018-11-01T08:58:54.227Z,48.66
2018-11-01T09:01:21.077Z,50.05
2018-11-01T09:03:47.910Z,49.90
2018-11-01T09:06:15.067Z,48.91
2018-11-01T09:08:41.930Z,49.10
2018-11-01T09:11:08.677Z,49.35
2018-11-01T09:13:35.509Z,49.18
2018-11-01T09:16:02.354Z,49.40
2018-11-01T09:18:29.159Z,49.52
2018-11-01T09:20:55.977Z,50.06
2018-11-01T09:23:22.815Z,49.87
2018-11-01T09:25:50.444Z,49.55
2018-11-01T09:28:17.292Z,49.66
2018-11-01T09:30:45.160Z,48.99
2018-11-01T09:33:11.985Z,49.24
2018-11-01T09:35:38.844Z,49.38
2018-11-01T09:38:05.716Z,49.14
2018-11-01T09:40:32.552Z,49.21
2018-11-01T09:42:59.419Z,49.35
2018-11-01T09:45:26.253Z,50.44
2018-11-01T09:47:53.374Z,49.08
2018-11-01T09:50:20.026Z,50.48
2018-11-01T09:52:46.831Z,50.42
2018-11-01T09:55:14.304Z,50.52
2018-11-01T09:57:41.993Z,48.99
2018-11-01T10:00:10.483Z,50.79
2018-11-01T10:02:38.368Z,49.68
2018-11-01T10:05:06.538Z,50.27
2018-11-01T10:07:33.369Z,49.62
2018-11-01T10:10:01.124Z,49.95
2018-11-01T10:12:28.889Z,49.64
2018-11-01T10:14:55.792Z,49.52
2018-11-01T10:17:23.955Z,49.65
2018-11-01T10:19:50.500Z,49.62
2018-11-01T10:22:18.382Z,49.90
2018-11-01T10:24:45.256Z,49.90
2018-11-01T10:27:19.513Z,50.00
2018-11-01T10:29:41.822Z,50.40
2018-11-01T10:32:09.444Z,49.70
2018-11-01T10:34:37.105Z,50.22
2018-11-01T10:37:04.822Z,49.97
2018-11-01T10:39:32.512Z,50.03
2018-11-01T10:42:01.303Z,49.85
2018-11-01T10:44:28.982Z,50.42
2018-11-01T10:46:56.625Z,50.66
2018-11-01T10:49:24.438Z,50.19
2018-11-01T10:51:51.368Z,50.09
2018-11-01T10:54:18.277Z,50.29
2018-11-01T10:56:45.187Z,50.61
2018-11-01T10:59:12.037Z,50.43
2018-11-01T11:01:43.783Z,50.17
2018-11-01T11:04:11.072Z,50.53
2018-11-01T11:06:38.005Z,51.09
2018-11-01T11:09:05.996Z,50.50
2018-11-01T11:11:32.829Z,50.69
2018-11-01T11:13:59.671Z,50.68
2018-11-01T11:16:26.508Z,51.19
2018-11-01T11:18:53.342Z,50.92
2018-11-01T11:21:20.299Z,51.54
2018-11-01T11:23:47.153Z,50.94
2018-11-01T11:26:16.420Z,51.37
2018-11-01T11:28:44.300Z,51.66
2018-11-01T11:31:12.095Z,51.90
2018-11-01T11:33:39.136Z,51.76
2018-11-01T11:36:06.790Z,51.40
2018-11-01T11:38:34.487Z,51.37
2018-11-01T11:41:02.264Z,51.85
2018-11-01T11:43:30.018Z,51.67
2018-11-01T11:45:57.880Z,51.34
2018-11-01T11:48:25.609Z,51.74
2018-11-01T11:50:52.450Z,51.47
2018-11-01T11:53:20.261Z,52.00
2018-11-01T11:55:48.038Z,52.31
2018-11-01T11:58:15.729Z,51.76
2018-11-01T12:00:44.161Z,51.25
2018-11-01T12:03:11.779Z,51.98
2018-11-01T12:05:38.696Z,51.95
2018-11-01T12:08:06.319Z,51.84
2018-11-01T12:10:33.167Z,51.89
2018-11-01T12:13:00.934Z,51.97
2018-11-01T12:15:27.811Z,52.86
2018-11-01T12:17:55.597Z,52.87
2018-11-01T12:20:23.327Z,52.39
2018-11-01T12:22:50.587Z,52.82
2018-11-01T12:25:17.469Z,52.84
2018-11-01T12:27:45.260Z,53.43
2018-11-01T12:30:14.165Z,53.13
2018-11-01T12:32:41.821Z,53.17
2018-11-01T12:35:10.145Z,53.28
2018-11-01T12:37:38.038Z,52.74
2018-11-01T12:40:06.360Z,52.97
2018-11-01T12:42:33.185Z,52.54
2018-11-01T12:45:00.978Z,53.30
2018-11-01T12:47:28.891Z,53.32
2018-11-01T12:49:56.702Z,52.91
2018-11-01T12:52:24.347Z,53.25
2018-11-01T12:54:51.188Z,53.13
2018-11-01T12:57:18.896Z,52.74
2018-11-01T12:59:45.764Z,53.38
2018-11-01T13:02:14.246Z,53.06
2018-11-01T13:04:41.878Z,53.17
2018-11-01T13:07:09.512Z,53.46
2018-11-01T13:09:37.276Z,53.15
2018-11-01T13:12:04.999Z,53.18
2018-11-01T13:14:32.641Z,53.23
2018-11-01T13:16:59.539Z,54.03
2018-11-01T13:19:27.192Z,53.67
2018-11-01T13:21:54.809Z,53.94
2018-11-01T13:24:22.588Z,53.24
2018-11-01T13:26:49.481Z,52.89
2018-11-01T13:29:17.270Z,53.00
2018-11-01T13:31:45.113Z,53.62
2018-11-01T13:34:12.162Z,53.47
2018-11-01T13:36:39.959Z,53.65
2018-11-01T13:39:07.793Z,53.31
2018-11-01T13:41:35.628Z,53.59
2018-11-01T13:44:03.303Z,54.07
2018-11-01T13:46:31.180Z,52.85
2018-11-01T13:48:59.271Z,54.14
2018-11-01T13:51:26.090Z,52.95
2018-11-01T13:53:53.939Z,53.55
2018-11-01T13:56:21.828Z,53.48
2018-11-01T13:58:49.594Z,54.06
2018-11-01T14:01:17.324Z,53.99
2018-11-01T14:03:45.189Z,53.80
2018-11-01T14:06:12.036Z,54.15
2018-11-01T14:08:38.943Z,54.32
2018-11-01T14:11:05.779Z,53.97
2018-11-01T14:13:33.607Z,54.12
2018-11-01T14:16:00.397Z,53.74
2018-11-01T14:18:28.230Z,53.81
2018-11-01T14:20:56.108Z,54.21
2018-11-01T14:23:23.930Z,54.18
2018-11-01T14:25:50.787Z,53.49
2018-11-01T14:28:18.608Z,53.53
2018-11-01T14:30:46.361Z,53.62
2018-11-01T14:33:14.801Z,54.69
2018-11-01T14:35:42.583Z,54.16
2018-11-01T14:38:09.422Z,54.56
2018-11-01T14:40:37.067Z,53.23
2018-11-01T14:43:04.772Z,54.05
2018-11-01T14:45:31.609Z,53.82
2018-11-01T14:47:59.398Z,53.87
2018-11-01T14:50:26.253Z,54.42
2018-11-01T14:52:53.269Z,55.18
2018-11-01T14:55:20.685Z,53.57
2018-11-01T14:57:48.419Z,54.17
2018-11-01T15:00:14.382Z,54.05
2018-11-01T15:02:41.248Z,54.39
2018-11-01T15:05:08.357Z,53.82
2018-11-01T15:07:35.243Z,54.24
2018-11-01T15:10:02.102Z,54.49
2018-11-01T15:12:28.920Z,54.18
2018-11-01T15:14:55.795Z,54.25
2018-11-01T15:17:22.662Z,54.47
2018-11-01T15:19:49.507Z,54.51
2018-11-01T15:22:17.197Z,55.00
2018-11-01T15:24:44.183Z,54.67
2018-11-01T15:27:11.036Z,54.44
2018-11-01T15:29:38.010Z,54.14
2018-11-01T15:32:04.807Z,54.23
2018-11-01T15:34:33.357Z,54.57
2018-11-01T15:37:00.362Z,54.37
2018-11-01T15:39:27.236Z,53.54
2018-11-01T15:41:54.253Z,53.62
2018-11-01T15:44:21.127Z,53.88
2018-11-01T15:46:48.936Z,55.06
2018-11-01T15:49:15.853Z,54.91
2018-11-01T15:51:44.488Z,55.23
2018-11-01T15:54:12.301Z,54.86
2018-11-01T15:56:40.078Z,54.56
2018-11-01T15:59:07.928Z,54.06
2018-11-01T16:01:35.598Z,54.85
2018-11-01T16:04:03.394Z,54.13
2018-11-01T16:06:30.226Z,53.95
2018-11-01T16:08:57.958Z,54.20
2018-11-01T16:11:25.813Z,53.99
2018-11-01T16:13:52.829Z,54.61
2018-11-01T16:16:20.744Z,53.93
2018-11-01T16:18:55.448Z,53.77
2018-11-01T16:21:23.656Z,53.95
2018-11-01T16:23:50.789Z,54.53
2018-11-01T16:26:19.046Z,54.62
2018-11-01T16:28:46.717Z,54.46
2018-11-01T16:31:14.950Z,54.22
2018-11-01T16:33:42.655Z,54.23
2018-11-01T16:36:09.501Z,54.08
2018-11-01T16:38:36.339Z,53.67
2018-11-01T16:41:03.192Z,54.05
2018-11-01T16:43:30.082Z,53.97
2018-11-01T16:45:56.960Z,53.67
2018-11-01T16:48:24.609Z,53.69
2018-11-01T16:50:52.634Z,54.05
2018-11-01T16:53:19.517Z,54.20
2018-11-01T16:55:47.305Z,54.34
2018-11-01T16:58:15.156Z,54.41
2018-11-01T17:00:42.104Z,53.53
2018-11-01T17:03:09.844Z,54.59
2018-11-01T17:05:37.636Z,53.88
2018-11-01T17:08:05.419Z,54.34
2018-11-01T17:10:33.264Z,54.00
2018-11-01T17:13:00.166Z,53.91
2018-11-01T17:15:28.039Z,54.09
2018-11-01T17:17:54.902Z,54.83
2018-11-01T17:20:22.822Z,54.28
2018-11-01T17:22:49.685Z,53.77
2018-11-01T17:25:16.555Z,54.23
2018-11-01T17:27:44.467Z,54.13
2018-11-01T17:30:12.333Z,54.34
2018-11-01T17:32:45.776Z,54.38
2018-11-01T17:35:14.492Z,54.90
2018-11-01T17:37:42.301Z,54.28
2018-11-01T17:40:10.071Z,54.01
2018-11-01T17:42:36.938Z,54.28
2018-11-01T17:45:04.233Z,54.08
2018-11-01T17:47:31.104Z,54.49
2018-11-01T17:49:57.977Z,54.61
2018-11-01T17:52:24.836Z,54.63
2018-11-01T17:54:51.696Z,55.13
2018-11-01T17:57:18.557Z,55.14
2018-11-01T17:59:45.385Z,55.61
2018-11-01T18:02:13.932Z,54.01
2018-11-01T18:04:41.774Z,54.50
2018-11-01T18:07:08.706Z,53.98
2018-11-01T18:09:36.442Z,54.34
2018-11-01T18:12:03.436Z,54.61
2018-11-01T18:14:30.457Z,54.23
2018-11-01T18:16:58.226Z,54.28
2018-11-01T18:19:25.173Z,54.18
2018-11-01T18:21:53.001Z,54.33
2018-11-01T18:24:19.939Z,54.72
2018-11-01T18:26:46.812Z,54.55
2018-11-01T18:29:15.789Z,54.45
2018-11-01T18:31:44.237Z,54.45
2018-11-01T18:34:11.952Z,54.48
2018-11-01T18:36:39.776Z,54.14
2018-11-01T18:39:07.189Z,54.51
2018-11-01T18:41:33.986Z,54.81
2018-11-01T18:44:00.866Z,54.63
2018-11-01T18:46:28.634Z,54.52
2018-11-01T18:48:55.484Z,54.88
2018-11-01T18:51:23.185Z,54.63
2018-11-01T18:53:51.104Z,54.67
2018-11-01T18:56:18.821Z,54.64
2018-11-01T18:58:46.671Z,54.41
2018-11-01T19:01:15.355Z,54.60
2018-11-01T19:03:42.217Z,54.56
2018-11-01T19:06:10.178Z,54.46
2018-11-01T19:08:38.072Z,54.27
2018-11-01T19:11:05.073Z,54.38
2018-11-01T19:13:32.903Z,54.75
2018-11-01T19:16:00.837Z,54.73
2018-11-01T19:18:27.679Z,55.26
2018-11-01T19:20:54.572Z,54.95
2018-11-01T19:23:22.373Z,54.25
2018-11-01T19:25:50.234Z,54.05
2018-11-01T19:28:17.118Z,53.79
2018-11-01T19:30:44.914Z,53.95
2018-11-01T19:33:11.868Z,54.07
2018-11-01T19:35:39.611Z,54.71
2018-11-01T19:38:07.443Z,54.49
2018-11-01T19:40:34.403Z,54.35
2018-11-01T19:43:02.279Z,54.39
2018-11-01T19:45:30.135Z,54.36
2018-11-01T19:47:58.046Z,54.66
2018-11-01T19:50:25.840Z,54.28
2018-11-01T19:52:52.752Z,53.96
2018-11-01T19:55:19.616Z,54.33
2018-11-01T19:57:47.544Z,54.36
2018-11-01T20:00:15.702Z,53.77
2018-11-01T20:02:42.878Z,54.46
2018-11-01T20:05:10.479Z,54.40
2018-11-01T20:07:38.238Z,54.08
2018-11-01T20:10:06.565Z,54.31
2018-11-01T20:12:33.447Z,54.32
2018-11-01T20:15:01.283Z,54.44
2018-11-01T20:17:28.257Z,54.18
2018-11-01T20:19:56.176Z,54.26
2018-11-01T20:22:24.159Z,54.05
2018-11-01T20:24:51.058Z,54.80
2018-11-01T20:27:18.876Z,54.25
2018-11-01T20:29:45.815Z,54.33
2018-11-01T20:32:12.777Z,53.99
2018-11-01T20:34:40.556Z,54.01
2018-11-01T20:37:08.258Z,54.59
2018-11-01T20:39:35.216Z,53.69
2018-11-01T20:42:02.383Z,54.00
2018-11-01T20:44:29.433Z,53.80
2018-11-01T20:46:56.296Z,54.77
2018-11-01T20:49:23.878Z,54.52
2018-11-01T20:51:50.723Z,54.18
2018-11-01T20:54:17.753Z,54.15
2018-11-01T20:56:45.255Z,54.54
2018-11-01T20:59:12.362Z,53.89
2018-11-01T21:01:39.282Z,53.97
2018-11-01T21:04:06.236Z,54.05
2018-11-01T21:06:33.323Z,53.78
2018-11-01T21:09:00.379Z,54.41
2018-11-01T21:11:27.510Z,53.67
2018-11-01T21:13:55.134Z,53.27
2018-11-01T21:16:22.178Z,53.23
2018-11-01T21:18:49.025Z,53.97
2018-11-01T21:21:15.886Z,54.20
2018-11-01T21:23:43.712Z,53.99
2018-11-01T21:26:10.948Z,53.70
2018-11-01T21:28:37.947Z,53.87
2018-11-01T21:31:05.214Z,53.79
2018-11-01T21:33:32.130Z,54.25
2018-11-01T21:35:59.128Z,53.79
2018-11-01T21:38:25.918Z,53.49
2018-11-01T21:40:52.776Z,54.00
2018-11-01T21:43:19.602Z,53.33
2018-11-01T21:45:46.471Z,54.12
2018-11-01T21:48:13.946Z,53.82
2018-11-01T21:50:40.827Z,53.54
2018-11-01T21:53:07.783Z,53.38
2018-11-01T21:55:35.057Z,53.50
2018-11-01T21:58:01.929Z,53.14
2018-11-01T22:00:28.900Z,53.40
2018-11-01T22:02:55.776Z,53.21
2018-11-01T22:05:22.709Z,53.81
2018-11-01T22:07:50.361Z,53.33
2018-11-01T22:10:17.256Z,54.13
2018-11-01T22:12:44.776Z,53.72
2018-11-01T22:15:12.307Z,54.44
2018-11-01T22:17:43.558Z,53.52
2018-11-01T22:20:10.829Z,53.42
2018-11-01T22:22:37.730Z,53.44
2018-11-01T22:25:06.157Z,53.10
2018-11-01T22:27:33.042Z,52.91
2018-11-01T22:29:59.904Z,53.49
2018-11-01T22:32:30.854Z,53.36
2018-11-01T22:34:57.755Z,53.71
2018-11-01T22:37:25.604Z,53.74
2018-11-01T22:39:52.458Z,53.54
2018-11-01T22:42:20.221Z,52.89
2018-11-01T22:44:47.077Z,53.42
2018-11-01T22:47:14.620Z,53.46
2018-11-01T22:49:42.438Z,52.95
2018-11-01T22:52:09.602Z,53.36
2018-11-01T22:54:36.508Z,53.23
2018-11-01T22:57:03.510Z,52.87
2018-11-01T22:59:31.262Z,52.46
2018-11-01T23:01:58.925Z,53.02
2018-11-01T23:04:25.812Z,53.09
2018-11-01T23:06:53.496Z,53.08
2018-11-01T23:09:20.377Z,53.02
2018-11-01T23:11:48.176Z,52.46
2018-11-01T23:14:15.930Z,52.37
2018-11-01T23:16:42.774Z,52.68
2018-11-01T23:19:09.603Z,52.59
2018-11-01T23:21:37.317Z,52.72
2018-11-01T23:24:04.167Z,52.67
2018-11-01T23:26:31.025Z,52.94
2018-11-01T23:28:57.886Z,52.82
2018-11-01T23:31:24.781Z,52.79
2018-11-01T23:33:51.626Z,53.26
2018-11-01T23:36:17.961Z,52.67
2018-11-01T23:38:50.537Z,53.01
2018-11-01T23:41:23.047Z,53.01
2018-11-01T23:43:55.504Z,52.93
2018-11-01T23:46:27.917Z,52.32
2018-11-01T23:49:05.558Z,53.05
2018-11-01T23:51:32.432Z,52.75
2018-11-01T23:53:59.266Z,52.67
2018-11-01T23:56:26.100Z,53.49
2018-11-01T23:58:53.819Z,52.96
